Higgins, Texas
Current Conditions -  °F | °C
As of 8:00 AM on Monday 20 Oct 2014 (Local Time) from KGAG Reporting Station
Haze Haze  
Wind Chill: 55°   Ceiling: Unl
Heat Index: 55°   Visibility: 2.5mi
Dew Point: 54°   Wind: 8mph
Humidity: 96%   Direction: 250°WSW
Pressure: 30.04"   Gusts: NA
Location:  36.12°N, 100.02°W
Report Text: KGAG 201300Z AUTO 25007KT 2 1/2SM BR CLR 13/12 A3004 RMK AO2 T01280122
Loading
Personal Weather Stations






























Interactive Weather Map
Tropical Storm Tracking
New forecast layout! Learn more

10-Day Weather Forecast

Advertisements
Track Severe Weather on mobile